Time;durP1;ratioP1;P1;durP2;ratioP2;P2;SDS_P1;SDS_P2;PMS_P1;PMS_P2;Temp;Humidity;BMP_temperature;BMP_pressure;BME280_temperature;BME280_humidity;BME280_pressure;Samples;Min_cycle;Max_cycle;Signal;HPM_P1;HPM_P2
2021/11/15 00:06:45;;;;;;;42.17;21.58;;;7.00;99.90;;;;;;6140528;23;20045;-87
2021/11/15 00:18:39;;;;;;;43.33;22.60;;;6.90;99.90;;;;;;6048750;23;20020;-90
2021/11/15 00:30:26;;;;;;;46.45;23.90;;;6.90;99.90;;;;;;5989460;23;20490;-91
2021/11/15 00:53:58;;;;;;;47.05;24.27;;;6.80;99.90;;;;;;5954880;24;20012;-90
2021/11/15 01:01:09;;;;;;;49.35;24.45;;;6.70;99.90;;;;;;5971300;23;20024;-88
2021/11/15 01:12:53;;;;;;;48.33;23.88;;;6.70;99.90;;;;;;6019989;23;20015;-90
2021/11/15 01:19:35;;;;;;;42.92;21.70;;;6.60;99.90;;;;;;6076388;23;20041;-87
2021/11/15 01:48:26;;;;;;;44.65;21.02;;;6.60;99.90;;;;;;6207931;23;20045;-90
2021/11/15 02:15:24;;;;;;;40.17;21.13;;;6.40;99.90;;;;;;5992928;24;20030;-91
2021/11/15 02:31:22;;;;;;;34.60;18.90;;;6.30;99.90;;;;;;5915266;24;20020;-90
2021/11/15 02:48:08;;;;;;;37.42;18.20;;;6.30;99.90;;;;;;5917872;24;20017;-91
2021/11/15 03:41:09;;;;;;;;;;;;;;;;;;;;;
2021/11/15 03:56:40;;;;;;;25.02;13.23;;;6.00;99.90;;;;;;6163914;23;20131;-90
2021/11/15 03:59:55;;;;;;;17.40;10.75;;;6.00;99.90;;;;;;6003849;23;20444;-88
2021/11/15 04:19:42;;;;;;;27.80;15.88;;;5.90;99.90;;;;;;6212592;23;20023;-91
2021/11/15 04:23:05;;;;;;;26.67;15.43;;;5.90;99.90;;;;;;6253251;23;20028;-90
2021/11/15 04:25:56;;;;;;;30.25;16.38;;;5.90;99.90;;;;;;6231592;23;20020;-92
2021/11/15 04:29:35;;;;;;;;;;;;;;;;;;;;;
2021/11/15 04:53:08;;;;;;;41.30;20.90;;;5.70;99.90;;;;;;6255449;23;20014;-90
2021/11/15 04:56:37;;;;;;;40.55;20.35;;;5.70;99.90;;;;;;6167286;23;20361;-91
2021/11/15 05:12:56;;;;;;;;;;;;;;;;;;;;;
2021/11/15 05:16:58;;;;;;;39.75;21.25;;;5.60;99.90;;;;;;5912479;24;20134;-90
2021/11/15 05:49:20;;;;;;;42.17;22.98;;;5.60;99.90;;;;;;6156239;23;20107;-85
2021/11/15 05:52:44;;;;;;;41.78;23.05;;;5.60;99.90;;;;;;6140049;23;20688;-89
2021/11/15 06:03:57;;;;;;;43.78;23.40;;;5.60;99.90;;;;;;6096758;23;20057;-89
2021/11/15 06:07:17;;;;;;;;;;;;;;;;;;;;;
2021/11/15 06:10:09;;;;;;;41.13;23.00;;;5.60;99.90;;;;;;6157007;23;20032;-87
2021/11/15 06:12:57;;;;;;;40.58;22.85;;;5.60;99.90;;;;;;6177450;23;20080;-86
2021/11/15 06:15:48;;;;;;;40.33;22.55;;;5.60;99.90;;;;;;6234278;22;20028;-84
2021/11/15 06:19:02;;;;;;;39.25;22.60;;;5.60;99.90;;;;;;6210925;22;20009;-80
2021/11/15 06:21:50;;;;;;;41.60;23.50;;;5.60;99.90;;;;;;6239428;22;20289;-81
2021/11/15 06:24:47;;;;;;;;;;;;;;;;;;;;;
2021/11/15 06:27:35;;;;;;;41.05;23.52;;;5.60;99.90;;;;;;6238318;22;20008;-81
2021/11/15 06:30:24;;;;;;;43.85;22.42;;;5.70;99.90;;;;;;6240325;22;20024;-83
2021/11/15 06:33:14;;;;;;;41.55;23.38;;;5.60;99.90;;;;;;6238216;22;20024;-87
2021/11/15 06:36:24;;;;;;;46.00;23.80;;;5.60;99.90;;;;;;6231930;23;20024;-83
2021/11/15 06:44:00;;;;;;;;;;;;;;;;;;;;;
2021/11/15 06:52:17;;;;;;;;;;;;;;;;;;;;;
2021/11/15 06:55:06;;;;;;;;;;;;;;;;;;;;;
2021/11/15 06:57:55;;;;;;;41.28;22.52;;;5.50;99.90;;;;;;6010216;23;20024;-87
2021/11/15 07:00:52;;;;;;;40.60;21.80;;;5.50;99.90;;;;;;6009912;23;20024;-87
2021/11/15 07:03:58;;;;;;;46.92;23.55;;;5.50;99.90;;;;;;6051656;23;20023;-88
2021/11/15 07:07:18;;;;;;;;;;;;;;;;;;;;;
2021/11/15 07:10:19;;;;;;;43.10;23.10;;;5.50;99.90;;;;;;6218547;23;20028;-86
2021/11/15 07:13:20;;;;;;;41.83;23.70;;;5.50;99.90;;;;;;6198067;23;20082;-86
2021/11/15 07:16:37;;;;;;;45.45;24.38;;;5.50;99.90;;;;;;6198212;23;20020;-89
2021/11/15 07:19:56;;;;;;;40.47;21.70;;;5.50;99.90;;;;;;6096306;23;20022;-88
2021/11/15 07:23:07;;;;;;;;;;;;;;;;;;;;;
2021/11/15 07:26:26;;;;;;;43.72;22.70;;;5.50;99.90;;;;;;5980053;24;20039;-89
2021/11/15 07:29:38;;;;;;;40.97;21.77;;;5.60;99.90;;;;;;5978579;24;20032;-87
2021/11/15 07:32:31;;;;;;;39.42;22.40;;;5.60;99.90;;;;;;5960848;24;20111;-87
2021/11/15 07:35:33;;;;;;;;;;;;;;;;;;;;;
2021/11/15 07:39:02;;;;;;;46.38;24.00;;;5.60;99.90;;;;;;5847339;24;20065;-88
2021/11/15 07:42:04;;;;;;;42.92;23.77;;;5.60;99.90;;;;;;5910325;23;20051;-89
2021/11/15 07:44:54;;;;;;;43.03;23.40;;;5.60;99.90;;;;;;6066633;23;20031;-86
2021/11/15 07:47:56;;;;;;;44.47;23.75;;;5.60;99.90;;;;;;6051518;23;20034;-89
2021/11/15 07:51:17;;;;;;;48.88;24.08;;;5.60;99.90;;;;;;5912898;24;20192;-89
2021/11/15 07:54:25;;;;;;;;;;;;;;;;;;;;;
2021/11/15 07:57:33;;;;;;;;;;;;;;;;;;;;;
2021/11/15 08:00:33;;;;;;;42.63;23.08;;;5.60;99.90;;;;;;6067092;23;20411;-87
2021/11/15 08:03:32;;;;;;;44.13;24.05;;;5.60;99.90;;;;;;6050071;23;20102;-89
2021/11/15 08:06:27;;;;;;;42.42;24.30;;;5.60;99.90;;;;;;6064948;23;20767;-89
2021/11/15 08:09:21;;;;;;;41.50;22.35;;;5.60;99.90;;;;;;6198817;23;20404;-88
2021/11/15 08:12:36;;;;;;;38.80;22.55;;;5.60;99.90;;;;;;6217892;23;20032;-89
2021/11/15 08:15:55;;;;;;;;;;;;;;;;;;;;;
2021/11/15 08:18:50;;;;;;;37.70;22.23;;;5.60;99.90;;;;;;6212241;23;20090;-88
2021/11/15 08:21:52;;;;;;;;;;;;;;;;;;;;;
2021/11/15 08:25:51;;;;;;;43.65;22.52;;;5.70;99.90;;;;;;6216276;23;20047;-88
2021/11/15 08:28:59;;;;;;;;;;;5.80;99.90;;;;;;6199537;23;20035;-84
2021/11/15 08:31:53;;;;;;;35.47;20.70;;;5.80;99.90;;;;;;6196414;23;19928;-87
2021/11/15 08:35:08;;;;;;;37.63;21.67;;;5.80;99.90;;;;;;6195090;23;20028;-88
2021/11/15 08:38:20;;;;;;;38.83;21.92;;;5.80;99.90;;;;;;6216657;23;20029;-87
2021/11/15 08:41:48;;;;;;;41.53;23.52;;;5.90;99.90;;;;;;6196590;23;20372;-88
2021/11/15 08:44:41;;;;;;;44.70;24.02;;;5.90;99.90;;;;;;6196823;23;20024;-89
2021/11/15 08:47:39;;;;;;;;;;;;;;;;;;;;;
2021/11/15 08:50:39;;;;;;;45.10;24.75;;;5.80;99.90;;;;;;6212101;23;20024;-85
2021/11/15 08:53:30;;;;;;;49.85;24.50;;;5.80;99.90;;;;;;6193279;23;20032;-87
2021/11/15 08:56:20;;;;;;;46.10;26.20;;;5.80;99.90;;;;;;6217980;23;20024;-86
2021/11/15 08:59:27;;;;;;;47.70;26.08;;;5.80;99.90;;;;;;6215376;23;20024;-88
2021/11/15 09:02:36;;;;;;;54.35;28.50;;;5.80;99.90;;;;;;6189095;23;20424;-88
2021/11/15 09:05:24;;;;;;;48.25;26.30;;;5.70;99.90;;;;;;6213372;23;20115;-87
2021/11/15 09:08:11;;;;;;;45.92;26.70;;;5.70;99.90;;;;;;6216471;23;20029;-87
2021/11/15 09:10:59;;;;;;;52.22;27.90;;;5.70;99.90;;;;;;6194968;23;20426;-87
2021/11/15 09:14:05;;;;;;;49.75;27.88;;;5.70;99.90;;;;;;6231020;23;20051;-87
2021/11/15 09:16:58;;;;;;;56.20;27.88;;;5.70;99.90;;;;;;6210133;23;20040;-86
2021/11/15 09:19:50;;;;;;;50.03;26.55;;;5.70;99.90;;;;;;6228831;23;20080;-85
2021/11/15 09:22:41;;;;;;;46.03;26.88;;;5.60;99.90;;;;;;6196505;23;20032;-87
2021/11/15 09:25:31;;;;;;;55.45;28.95;;;5.60;99.90;;;;;;6194524;23;20415;-87
2021/11/15 09:28:21;;;;;;;46.60;27.38;;;5.60;99.90;;;;;;6194951;23;20528;-84
2021/11/15 09:31:11;;;;;;;56.45;26.88;;;5.60;99.90;;;;;;6214897;23;20300;-86
2021/11/15 09:34:02;;;;;;;47.38;25.33;;;5.70;99.90;;;;;;6193788;23;20028;-88
2021/11/15 09:36:56;;;;;;;48.60;25.70;;;5.70;99.90;;;;;;6193579;23;20090;-87
2021/11/15 09:39:50;;;;;;;45.83;25.13;;;5.70;99.90;;;;;;6217840;23;20119;-88
2021/11/15 09:43:10;;;;;;;50.38;26.90;;;5.60;99.90;;;;;;6095372;23;20105;-89
2021/11/15 09:46:13;;;;;;;51.20;26.42;;;5.60;99.90;;;;;;6107826;23;20128;-84
2021/11/15 09:49:10;;;;;;;53.85;27.38;;;5.60;99.90;;;;;;6099407;23;20030;-86
2021/11/15 09:52:28;;;;;;;50.00;26.88;;;5.60;99.90;;;;;;6104378;23;20030;-88
2021/11/15 09:56:04;;;;;;;;;;;;;;;;;;;;;
2021/11/15 09:59:06;;;;;;;;;;;;;;;;;;;;;
2021/11/15 10:02:37;;;;;;;39.88;23.42;;;5.70;99.90;;;;;;6112793;23;20026;-86
2021/11/15 10:05:31;;;;;;;34.30;21.13;;;5.80;99.90;;;;;;6106621;23;20070;-85
2021/11/15 10:08:19;;;;;;;36.58;21.15;;;5.80;99.90;;;;;;6205203;23;20029;-84
2021/11/15 10:11:09;;;;;;;34.40;20.83;;;5.80;99.90;;;;;;6222306;23;20020;-85
2021/11/15 10:14:03;;;;;;;35.63;20.75;;;5.90;99.90;;;;;;6215236;23;20159;-84
2021/11/15 10:17:09;;;;;;;34.67;20.40;;;5.80;99.90;;;;;;6216930;23;20110;-87
2021/11/15 10:20:18;;;;;;;42.30;21.17;;;5.90;99.90;;;;;;6202620;23;20114;-87
2021/11/15 10:27:18;;;;;;;36.38;20.65;;;5.80;99.90;;;;;;6215388;23;20029;-86
2021/11/15 10:30:15;;;;;;;41.40;21.83;;;5.90;99.90;;;;;;6216523;23;20034;-84
2021/11/15 10:33:11;;;;;;;38.42;22.35;;;5.90;99.90;;;;;;6214963;23;20021;-88
2021/11/15 10:36:04;;;;;;;40.95;22.08;;;5.90;99.90;;;;;;6192049;23;20043;-87
2021/11/15 10:38:55;;;;;;;38.95;21.80;;;5.90;99.90;;;;;;6195964;23;20052;-86
2021/11/15 10:42:00;;;;;;;37.95;21.45;;;5.90;99.90;;;;;;6212872;23;20502;-84
2021/11/15 10:45:22;;;;;;;39.70;20.60;;;5.90;99.90;;;;;;6214509;23;20328;-85
2021/11/15 10:48:12;;;;;;;42.88;21.63;;;6.00;99.90;;;;;;6159746;23;20051;-86
2021/11/15 10:50:59;;;;;;;41.17;20.95;;;6.00;99.90;;;;;;6213745;23;20036;-86
2021/11/15 10:53:56;;;;;;;40.13;22.45;;;6.00;99.90;;;;;;6214365;23;20035;-87
2021/11/15 10:56:50;;;;;;;37.92;22.00;;;6.00;99.90;;;;;;6215086;23;20035;-85
2021/11/15 10:59:40;;;;;;;34.45;20.42;;;6.00;99.90;;;;;;6211607;23;20025;-87
2021/11/15 11:02:40;;;;;;;40.53;21.02;;;6.00;99.90;;;;;;6193796;23;20140;-87
2021/11/15 11:05:34;;;;;;;40.45;22.75;;;6.00;99.90;;;;;;6195629;23;20316;-87
2021/11/15 11:08:28;;;;;;;42.55;22.45;;;6.00;99.90;;;;;;6213958;23;20039;-88
2021/11/15 11:11:24;;;;;;;40.03;22.20;;;5.90;99.90;;;;;;6213791;23;20055;-84
2021/11/15 11:14:19;;;;;;;40.33;21.38;;;5.90;99.90;;;;;;6212327;23;20024;-85
2021/11/15 11:17:09;;;;;;;37.88;21.58;;;5.90;99.90;;;;;;6215110;23;20028;-86
2021/11/15 11:20:18;;;;;;;36.30;21.60;;;5.90;99.90;;;;;;6193937;23;20063;-87
2021/11/15 11:26:18;;;;;;;37.92;21.25;;;5.90;99.90;;;;;;6216690;23;20024;-85
2021/11/15 11:29:28;;;;;;;36.50;20.17;;;5.90;99.90;;;;;;6193794;23;20453;-88
2021/11/15 11:32:21;;;;;;;35.45;20.17;;;5.90;99.90;;;;;;6216521;23;20036;-88
2021/11/15 11:35:11;;;;;;;38.53;19.05;;;5.90;99.90;;;;;;6216084;23;20020;-87
2021/11/15 11:38:01;;;;;;;37.33;19.48;;;5.90;99.90;;;;;;6216121;23;20099;-86
2021/11/15 11:40:50;;;;;;;36.05;19.30;;;5.90;99.90;;;;;;6215187;23;20033;-87
2021/11/15 11:43:42;;;;;;;32.00;18.92;;;5.90;99.90;;;;;;6193108;23;20020;-84
2021/11/15 11:46:29;;;;;;;34.85;18.20;;;5.80;99.90;;;;;;6214776;23;20450;-85
2021/11/15 11:49:29;;;;;;;32.08;18.15;;;5.80;99.90;;;;;;6216772;23;20036;-85
2021/11/15 11:52:24;;;;;;;28.10;16.52;;;5.90;99.90;;;;;;6215236;23;20048;-86
2021/11/15 11:55:20;;;;;;;31.75;17.33;;;5.90;99.90;;;;;;6194827;23;20095;-86
2021/11/15 11:58:32;;;;;;;32.22;17.35;;;5.90;99.90;;;;;;6199124;23;20084;-85
2021/11/15 12:01:24;;;;;;;28.17;17.65;;;5.90;99.90;;;;;;6194747;23;20020;-89
2021/11/15 12:04:22;;;;;;;32.05;17.83;;;5.90;99.90;;;;;;6196054;23;20038;-88
2021/11/15 12:07:25;;;;;;;29.55;17.52;;;5.90;99.90;;;;;;6196488;23;20148;-88
2021/11/15 12:10:36;;;;;;;32.95;17.45;;;6.00;99.90;;;;;;6195908;23;20055;-86
2021/11/15 12:13:31;;;;;;;29.70;16.88;;;6.00;99.90;;;;;;6196767;23;20024;-85
2021/11/15 12:16:45;;;;;;;38.20;18.45;;;6.10;99.90;;;;;;6216236;23;20032;-87
2021/11/15 12:19:56;;;;;;;33.35;17.70;;;6.00;99.90;;;;;;6215187;23;20024;-87
2021/11/15 12:23:15;;;;;;;30.85;18.73;;;6.00;99.90;;;;;;6210882;23;20028;-85
2021/11/15 12:26:49;;;;;;;;;;;;;;;;;;;;;
2021/11/15 12:29:39;;;;;;;33.45;18.73;;;6.10;99.90;;;;;;6219846;23;20091;-87
2021/11/15 12:32:31;;;;;;;34.20;18.90;;;6.10;99.90;;;;;;6217691;23;20028;-86
2021/11/15 12:35:19;;;;;;;33.75;18.05;;;6.20;99.90;;;;;;6198285;23;20043;-87
2021/11/15 12:38:49;;;;;;;31.27;18.60;;;6.10;99.90;;;;;;6200166;23;20058;-85
2021/11/15 12:41:50;;;;;;;30.55;17.92;;;6.10;99.90;;;;;;6225151;23;20076;-86
2021/11/15 12:45:22;;;;;;;32.72;19.40;;;6.10;99.90;;;;;;6198917;23;20025;-86
2021/11/15 12:48:31;;;;;;;32.95;18.25;;;6.10;99.90;;;;;;6202386;23;20104;-89
2021/11/15 12:51:25;;;;;;;33.95;19.67;;;6.10;99.90;;;;;;6207548;23;20033;-88
2021/11/15 12:54:14;;;;;;;33.80;19.60;;;6.10;99.90;;;;;;6233911;23;20100;-86
2021/11/15 12:57:07;;;;;;;33.90;20.70;;;6.10;99.90;;;;;;6235248;23;20036;-88
2021/11/15 12:59:57;;;;;;;36.70;20.63;;;6.00;99.90;;;;;;6239555;22;20020;-86
2021/11/15 13:03:07;;;;;;;39.55;21.65;;;6.00;99.90;;;;;;6239461;22;20008;-88
2021/11/15 13:05:58;;;;;;;37.88;20.55;;;6.10;99.90;;;;;;6212896;23;20099;-84
2021/11/15 13:08:50;;;;;;;35.40;19.95;;;6.10;99.90;;;;;;6238922;22;20039;-85
2021/11/15 13:11:47;;;;;;;39.08;21.67;;;6.10;99.90;;;;;;6211996;23;20443;-86
2021/11/15 13:14:40;;;;;;;42.65;22.08;;;6.10;99.90;;;;;;6233094;23;20101;-86
2021/11/15 13:17:33;;;;;;;42.58;23.23;;;6.00;99.90;;;;;;6226746;23;20028;-88
2021/11/15 13:20:27;;;;;;;36.10;21.10;;;6.00;99.90;;;;;;6222147;23;20136;-88
2021/11/15 13:23:29;;;;;;;39.30;23.10;;;6.00;99.90;;;;;;6204605;23;20024;-88
2021/11/15 13:26:18;;;;;;;35.80;21.02;;;6.00;99.90;;;;;;6214169;23;20024;-87
2021/11/15 13:29:29;;;;;;;41.45;21.58;;;6.00;99.90;;;;;;6214921;23;20029;-87
2021/11/15 13:32:23;;;;;;;38.15;20.83;;;6.10;99.90;;;;;;6223505;23;20482;-86
2021/11/15 13:35:15;;;;;;;39.85;21.75;;;6.10;99.90;;;;;;6203734;23;20035;-84
2021/11/15 13:38:06;;;;;;;45.30;22.17;;;6.10;99.90;;;;;;6206043;23;20067;-85
2021/11/15 13:41:02;;;;;;;43.70;23.17;;;6.10;99.90;;;;;;6227225;23;20021;-87
2021/11/15 13:43:50;;;;;;;43.22;23.15;;;6.00;99.90;;;;;;6231343;23;20024;-85
2021/11/15 13:46:39;;;;;;;41.42;22.23;;;6.00;99.90;;;;;;6217933;22;20029;-87
2021/11/15 13:49:29;;;;;;;50.38;25.75;;;5.90;99.90;;;;;;6238607;22;20029;-86
2021/11/15 13:52:18;;;;;;;51.42;24.10;;;5.90;99.90;;;;;;6218143;22;20013;-85
2021/11/15 13:55:08;;;;;;;46.55;25.17;;;5.80;99.90;;;;;;6235467;22;20028;-86
2021/11/15 13:57:55;;;;;;;47.25;24.13;;;5.80;99.90;;;;;;6239213;23;20088;-86
2021/11/15 14:00:44;;;;;;;49.05;25.67;;;5.80;99.90;;;;;;6237259;23;20027;-87
2021/11/15 14:03:32;;;;;;;48.75;25.02;;;5.80;99.90;;;;;;6240592;23;20009;-86
2021/11/15 14:06:19;;;;;;;47.65;27.20;;;5.80;99.90;;;;;;6240107;22;20012;-86
2021/11/15 14:09:08;;;;;;;50.58;25.65;;;5.80;99.90;;;;;;6236365;23;20028;-86
2021/11/15 14:11:55;;;;;;;57.95;27.98;;;5.80;99.90;;;;;;6208044;23;20056;-86
2021/11/15 14:14:43;;;;;;;51.97;27.10;;;5.80;99.90;;;;;;6222980;23;20017;-86
2021/11/15 14:17:31;;;;;;;49.35;25.83;;;5.80;99.90;;;;;;6224108;23;20031;-85
2021/11/15 14:20:21;;;;;;;52.58;26.70;;;5.80;99.90;;;;;;6212886;23;20084;-86
2021/11/15 14:23:09;;;;;;;53.03;27.73;;;5.80;99.90;;;;;;6192013;23;20025;-86
2021/11/15 14:25:56;;;;;;;54.83;28.02;;;5.80;99.90;;;;;;6231190;23;20082;-85
2021/11/15 14:28:46;;;;;;;52.97;27.25;;;5.70;99.90;;;;;;6201881;23;20036;-84
2021/11/15 14:31:33;;;;;;;53.20;27.92;;;5.70;99.90;;;;;;6194135;23;20033;-80
2021/11/15 14:34:21;;;;;;;49.13;26.42;;;5.70;99.90;;;;;;6215307;23;20479;-84
2021/11/15 14:37:08;;;;;;;50.45;27.13;;;5.70;99.90;;;;;;6216558;23;20032;-83
2021/11/15 14:39:57;;;;;;;52.72;27.23;;;5.70;99.90;;;;;;6213624;23;20020;-83
2021/11/15 14:42:44;;;;;;;57.75;28.35;;;5.70;99.90;;;;;;6191628;23;20025;-83
2021/11/15 14:45:32;;;;;;;52.47;27.55;;;5.70;99.90;;;;;;6173716;23;20020;-83
2021/11/15 14:48:21;;;;;;;58.08;29.00;;;5.70;99.90;;;;;;6214769;23;20115;-83
2021/11/15 14:51:12;;;;;;;52.75;29.08;;;5.70;99.90;;;;;;6188682;23;20297;-86
2021/11/15 14:53:59;;;;;;;58.50;28.88;;;5.60;99.90;;;;;;6212423;23;20040;-83
2021/11/15 14:56:46;;;;;;;58.25;30.33;;;5.60;99.90;;;;;;6212677;23;20024;-83
2021/11/15 14:59:34;;;;;;;59.45;28.23;;;5.60;99.90;;;;;;6193595;23;20328;-85
2021/11/15 15:02:21;;;;;;;54.72;28.27;;;5.60;99.90;;;;;;6212628;23;20103;-85
2021/11/15 15:05:09;;;;;;;61.45;28.95;;;5.60;99.90;;;;;;6190753;23;20040;-84
2021/11/15 15:07:56;;;;;;;58.13;28.05;;;5.60;99.90;;;;;;6191736;23;20024;-84
2021/11/15 15:10:47;;;;;;;58.75;28.92;;;5.60;99.90;;;;;;6213815;23;20024;-84
2021/11/15 15:13:37;;;;;;;60.88;31.35;;;5.60;99.90;;;;;;6208501;23;20047;-83
2021/11/15 15:16:24;;;;;;;56.08;28.05;;;5.60;99.90;;;;;;6212327;23;20032;-84
2021/11/15 15:19:17;;;;;;;54.67;28.83;;;5.50;99.90;;;;;;6215118;23;20103;-84
2021/11/15 15:22:04;;;;;;;56.63;31.20;;;5.60;99.90;;;;;;6213541;23;20025;-85
2021/11/15 15:24:51;;;;;;;73.07;37.95;;;5.50;99.90;;;;;;6214186;23;20080;-86
2021/11/15 15:27:40;;;;;;;67.93;32.08;;;5.50;99.90;;;;;;6212343;23;20277;-85
2021/11/15 15:30:27;;;;;;;60.03;30.13;;;5.50;99.90;;;;;;6212455;23;20024;-85
2021/11/15 15:33:17;;;;;;;67.97;33.55;;;5.50;99.90;;;;;;6213403;23;20125;-85
2021/11/15 15:36:07;;;;;;;59.08;30.10;;;5.50;99.90;;;;;;6212272;23;20094;-85
2021/11/15 15:38:55;;;;;;;63.55;31.65;;;5.40;99.90;;;;;;6188137;23;20056;-85
2021/11/15 15:41:43;;;;;;;60.53;30.58;;;5.40;99.90;;;;;;6211453;23;20280;-84
2021/11/15 15:44:36;;;;;;;64.93;31.38;;;5.40;99.90;;;;;;6192374;23;20025;-83
2021/11/15 15:47:23;;;;;;;64.45;31.33;;;5.40;99.90;;;;;;6214865;23;20028;-85
2021/11/15 15:50:13;;;;;;;65.30;33.92;;;5.40;99.90;;;;;;6188722;23;20032;-83
2021/11/15 15:53:07;;;;;;;60.70;32.53;;;5.40;99.90;;;;;;6194738;23;20025;-84
2021/11/15 15:55:56;;;;;;;69.47;34.97;;;5.40;99.90;;;;;;6215857;23;20024;-83
2021/11/15 15:58:43;;;;;;;64.35;32.28;;;5.40;99.90;;;;;;6191364;23;20032;-83
2021/11/15 16:01:31;;;;;;;67.13;32.70;;;5.30;99.90;;;;;;6214450;23;20020;-82
2021/11/15 16:10:08;;;;;;;63.15;31.58;;;5.30;99.90;;;;;;6216500;23;20031;-81
2021/11/15 16:15:59;;;;;;;63.88;33.15;;;5.30;99.90;;;;;;6215602;23;20028;-82
2021/11/15 16:18:46;;;;;;;65.95;33.42;;;5.30;99.90;;;;;;6215000;23;20365;-82
2021/11/15 16:21:38;;;;;;;74.70;34.83;;;5.30;99.90;;;;;;6217353;23;20029;-85
2021/11/15 16:24:26;;;;;;;75.75;37.63;;;5.30;99.90;;;;;;6215139;23;20030;-83
2021/11/15 16:27:16;;;;;;;71.53;38.05;;;5.30;99.90;;;;;;6214267;23;20025;-81
2021/11/15 16:30:13;;;;;;;79.13;37.30;;;5.30;99.90;;;;;;6216317;23;20025;-82
2021/11/15 16:33:29;;;;;;;67.78;33.42;;;5.30;99.90;;;;;;6215513;23;20335;-84
2021/11/15 16:40:49;;;;;;;71.90;36.38;;;5.30;99.90;;;;;;6213347;23;20042;-82
2021/11/15 16:44:19;;;;;;;68.28;35.55;;;5.30;99.90;;;;;;6214399;23;20025;-83
2021/11/15 16:47:51;;;;;;;68.60;35.05;;;5.30;99.90;;;;;;6185788;23;20039;-85
2021/11/15 16:51:15;;;;;;;70.75;35.75;;;5.30;99.90;;;;;;6194912;23;20039;-82
2021/11/15 16:54:05;;;;;;;70.53;36.55;;;5.30;99.90;;;;;;6195000;23;20052;-83
2021/11/15 16:56:59;;;;;;;69.32;34.85;;;5.30;99.90;;;;;;6192799;23;20028;-82
2021/11/15 16:59:51;;;;;;;68.70;35.55;;;5.20;99.90;;;;;;6199131;23;20021;-84
2021/11/15 17:02:53;;;;;;;71.50;36.22;;;5.20;99.90;;;;;;6210708;23;20123;-84
2021/11/15 17:05:50;;;;;;;71.32;35.22;;;5.20;99.90;;;;;;6221838;23;20024;-83
2021/11/15 17:08:47;;;;;;;67.18;33.58;;;5.20;99.90;;;;;;6195806;23;20032;-81
2021/11/15 17:11:37;;;;;;;70.47;35.33;;;5.20;99.90;;;;;;6213466;23;20420;-81
2021/11/15 17:14:28;;;;;;;68.03;33.60;;;5.20;99.90;;;;;;6191373;23;20025;-83
2021/11/15 17:17:26;;;;;;;68.45;33.60;;;5.20;99.90;;;;;;6211746;23;20380;-85
2021/11/15 17:20:24;;;;;;;69.90;34.38;;;5.20;99.90;;;;;;6212697;23;20021;-83
2021/11/15 17:23:15;;;;;;;68.70;34.97;;;5.20;99.90;;;;;;6193934;23;20054;-81
2021/11/15 17:26:04;;;;;;;61.17;33.35;;;5.20;99.90;;;;;;6192507;23;20028;-84
2021/11/15 17:29:06;;;;;;;70.05;34.88;;;5.20;99.90;;;;;;6200324;23;20075;-84
2021/11/15 17:32:27;;;;;;;61.47;32.42;;;5.20;99.90;;;;;;6213928;23;20028;-84
2021/11/15 17:35:17;;;;;;;64.63;32.78;;;5.10;99.90;;;;;;6192151;23;20300;-83
2021/11/15 17:38:13;;;;;;;65.10;32.97;;;5.10;99.90;;;;;;6214956;23;20075;-82
2021/11/15 17:41:03;;;;;;;83.20;41.17;;;5.10;99.90;;;;;;6211253;23;20070;-84
2021/11/15 17:43:57;;;;;;;52.37;27.57;;;5.10;99.90;;;;;;6190975;23;20033;-84
2021/11/15 17:46:59;;;;;;;58.25;31.58;;;5.10;99.90;;;;;;6190426;23;20240;-81
2021/11/15 17:49:47;;;;;;;79.50;39.30;;;5.10;99.90;;;;;;6192069;23;20039;-83
2021/11/15 17:52:43;;;;;;;88.78;44.65;;;5.00;99.90;;;;;;6215042;23;20020;-82
2021/11/15 17:58:33;;;;;;;76.05;37.17;;;5.00;99.90;;;;;;6214036;23;20388;-82
2021/11/15 18:01:28;;;;;;;67.80;33.42;;;5.00;99.90;;;;;;6199800;23;20337;-82
2021/11/15 18:04:26;;;;;;;71.70;36.40;;;5.00;99.90;;;;;;6214192;23;20024;-83
2021/11/15 18:07:14;;;;;;;67.53;32.38;;;5.00;99.90;;;;;;6200021;23;20025;-86
2021/11/15 18:10:04;;;;;;;67.82;34.33;;;5.00;99.90;;;;;;6217873;23;20111;-88
2021/11/15 18:13:13;;;;;;;70.65;35.95;;;4.90;99.90;;;;;;6221329;23;20032;-90
2021/11/15 18:16:04;;;;;;;79.65;36.10;;;4.90;99.90;;;;;;6218124;23;20028;-89
2021/11/15 18:18:56;;;;;;;79.53;38.85;;;4.90;99.90;;;;;;6215704;23;20028;-86
2021/11/15 18:21:49;;;;;;;78.68;37.13;;;4.90;99.90;;;;;;6219875;23;20028;-91
2021/11/15 18:25:18;;;;;;;;;;;;;;;;;;;;;
2021/11/15 18:28:06;;;;;;;74.25;36.90;;;4.90;99.90;;;;;;6221867;23;20025;-88
2021/11/15 18:30:54;;;;;;;72.35;36.47;;;4.90;99.90;;;;;;6220796;23;20032;-90
2021/11/15 18:33:52;;;;;;;71.80;35.00;;;4.80;99.90;;;;;;6220116;23;20416;-90
2021/11/15 18:36:42;;;;;;;73.85;35.22;;;4.90;99.90;;;;;;6220657;23;20024;-89
2021/11/15 18:39:33;;;;;;;70.88;33.90;;;4.90;99.90;;;;;;6221736;23;20074;-86
2021/11/15 18:42:24;;;;;;;68.60;33.97;;;4.80;99.90;;;;;;6218115;23;20087;-91
2021/11/15 18:45:50;;;;;;;72.20;36.72;;;4.80;99.90;;;;;;6225442;23;20029;-87
2021/11/15 18:48:52;;;;;;;72.03;33.75;;;4.80;99.90;;;;;;6233158;23;20087;-86
2021/11/15 18:51:41;;;;;;;76.03;36.10;;;4.80;99.90;;;;;;6233905;22;20098;-87
2021/11/15 18:54:57;;;;;;;76.30;36.92;;;4.80;99.90;;;;;;6236116;22;20028;-83
2021/11/15 18:57:46;;;;;;;75.05;35.08;;;4.80;99.90;;;;;;6216893;22;20008;-84
2021/11/15 19:00:35;;;;;;;75.65;37.47;;;4.80;99.90;;;;;;6239577;23;20077;-82
2021/11/15 19:03:56;;;;;;;74.00;37.03;;;4.70;99.90;;;;;;6236383;22;20019;-83
2021/11/15 19:06:45;;;;;;;78.40;37.90;;;4.80;99.90;;;;;;6241107;22;20131;-84
2021/11/15 19:09:37;;;;;;;77.70;36.97;;;4.70;99.90;;;;;;6207925;23;20048;-91
2021/11/15 19:12:47;;;;;;;76.80;36.35;;;4.70;99.90;;;;;;6226605;23;20029;-90
2021/11/15 19:15:42;;;;;;;75.43;36.78;;;4.70;99.90;;;;;;6200702;23;20020;-88
2021/11/15 19:19:16;;;;;;;75.55;37.35;;;4.70;99.90;;;;;;6224622;23;20067;-89
2021/11/15 19:30:36;;;;;;;;;;;;;;;;;;;;;
2021/11/15 19:33:40;;;;;;;;;;;;;;;;;;;;;
2021/11/15 19:40:57;;;;;;;73.18;34.80;;;4.70;99.90;;;;;;6022654;23;20419;-90
2021/11/15 19:44:05;;;;;;;73.35;36.70;;;4.70;99.90;;;;;;6022689;23;20043;-89
2021/11/15 19:47:35;;;;;;;;;;;;;;;;;;;;;
2021/11/15 19:51:31;;;;;;;71.65;35.97;;;4.70;99.90;;;;;;5974919;24;20060;-85
2021/11/15 20:24:14;;;;;;;64.93;33.10;;;4.60;99.90;;;;;;6063127;23;20011;-87
2021/11/15 20:27:05;;;;;;;62.95;33.15;;;4.60;99.90;;;;;;5922848;23;20121;-86
2021/11/15 20:45:37;;;;;;;63.33;33.07;;;4.70;99.90;;;;;;6072986;23;20034;-90
2021/11/15 20:49:09;;;;;;;;;;;;;;;;;;;;;
2021/11/15 20:52:57;;;;;;;44.35;23.13;;;4.70;99.90;;;;;;6045712;23;20034;-90
2021/11/15 20:56:52;;;;;;;;;;;;;;;;;;;;;
2021/11/15 21:04:09;;;;;;;66.10;33.72;;;4.70;99.90;;;;;;5749851;24;20060;-90
2021/11/15 21:07:53;;;;;;;60.08;31.10;;;4.80;99.90;;;;;;5821113;24;20030;-90
2021/11/15 21:11:36;;;;;;;61.03;29.70;;;4.70;99.90;;;;;;5801711;24;20031;-91
2021/11/15 21:19:13;;;;;;;;;;;;;;;;;;;;;
2021/11/15 21:23:21;;;;;;;57.28;28.58;;;4.70;99.90;;;;;;5934594;24;19927;-90
2021/11/15 21:35:24;;;;;;;;;;;;;;;;;;;;;
2021/11/15 22:10:35;;;;;;;56.85;28.95;;;4.70;99.90;;;;;;5947901;24;20085;-86
2021/11/15 22:22:09;;;;;;;57.22;28.55;;;4.70;99.90;;;;;;6211674;22;20058;-84
2021/11/15 22:30:13;;;;;;;;;;;;;;;;;;;;;
2021/11/15 22:38:02;;;;;;;;;;;;;;;;;;;;;
2021/11/15 22:57:33;;;;;;;58.15;28.55;;;4.70;99.90;;;;;;5915065;24;20033;-90
2021/11/15 23:15:55;;;;;;;54.08;28.80;;;4.60;99.90;;;;;;6058440;22;4166638;-89
2021/11/15 23:19:16;;;;;;;57.20;28.38;;;4.60;99.90;;;;;;6108723;23;20034;-88
2021/11/15 23:22:06;;;;;;;58.88;29.75;;;4.60;99.90;;;;;;6094947;23;20030;-89
2021/11/15 23:25:16;;;;;;;59.22;30.25;;;4.60;99.90;;;;;;6109825;23;20100;-91
2021/11/15 23:28:17;;;;;;;62.97;31.15;;;4.60;99.90;;;;;;6094363;23;20026;-88
2021/11/15 23:32:07;;;;;;;;;;;;;;;;;;;;;
2021/11/15 23:39:28;;;;;;;;;;;;;;;;;;;;;
2021/11/15 23:46:35;;;;;;;57.42;30.05;;;4.60;99.90;;;;;;6204398;23;20308;-89
2021/11/15 23:50:09;;;;;;;61.22;30.08;;;4.60;99.90;;;;;;6222744;23;20025;-89
2021/11/15 23:53:45;;;;;;;;;;;;;;;;;;;;;
2021/11/15 23:56:49;;;;;;;65.15;32.55;;;4.60;99.90;;;;;;6189176;23;20056;-88
2021/11/15 23:59:53;;;;;;;64.72;32.40;;;4.60;99.90;;;;;;6226297;23;20042;-90
